createdAt,value
2024-05-09T00:00:22.315Z,53.0046
2024-05-09T00:01:18.970Z,49.7804
2024-05-09T00:02:21.490Z,50.2665
2024-05-09T00:03:24.061Z,50.0497
2024-05-09T00:04:26.635Z,50.1995
2024-05-09T00:05:29.365Z,49.5677
2024-05-09T00:06:31.867Z,51.6211
2024-05-09T00:07:34.368Z,50.6290
2024-05-09T00:08:37.219Z,50.5350
2024-05-09T00:09:39.522Z,48.9975
2024-05-09T00:10:42.206Z,54.6177
2024-05-09T00:11:44.733Z,53.6733
2024-05-09T00:12:47.317Z,51.4087
2024-05-09T00:13:49.872Z,50.0412
2024-05-09T00:14:52.634Z,49.4616
2024-05-09T00:15:55.010Z,52.1462
2024-05-09T00:16:57.649Z,50.5548
2024-05-09T00:18:00.402Z,53.3044
2024-05-09T00:19:02.857Z,50.1225
2024-05-09T00:20:14.245Z,50.8738
2024-05-09T00:21:07.978Z,50.6822
2024-05-09T00:22:10.522Z,50.2431
2024-05-09T00:23:13.723Z,53.3304
2024-05-09T00:24:15.685Z,51.6405
2024-05-09T00:25:18.296Z,50.5502
2024-05-09T00:26:20.911Z,49.4082
2024-05-09T00:27:23.466Z,52.3192
2024-05-09T00:28:26.048Z,54.3155
2024-05-09T00:29:28.710Z,51.8316
2024-05-09T00:30:34.979Z,52.5978
2024-05-09T00:31:33.767Z,55.8463
2024-05-09T00:32:36.605Z,55.1742
2024-05-09T00:33:39.139Z,52.2051
2024-05-09T00:34:41.512Z,51.7535
2024-05-09T00:35:44.101Z,54.8423
2024-05-09T00:36:46.679Z,53.4902
2024-05-09T00:37:49.254Z,52.2326
2024-05-09T00:38:51.815Z,51.9537
2024-05-09T00:39:54.415Z,53.3882
2024-05-09T00:40:57.038Z,51.5717
2024-05-09T00:41:59.583Z,53.4312
2024-05-09T00:43:02.148Z,51.5016
2024-05-09T00:44:04.769Z,54.3568
2024-05-09T00:45:07.306Z,55.6931
2024-05-09T00:46:09.923Z,51.4566
2024-05-09T00:47:12.555Z,52.2033
2024-05-09T00:48:17.721Z,52.8198
2024-05-09T00:49:17.794Z,52.7759
2024-05-09T00:50:29.354Z,52.1011
2024-05-09T00:51:22.866Z,53.6414
2024-05-09T00:52:25.406Z,51.6959
2024-05-09T00:53:28.055Z,54.1519
2024-05-09T00:54:30.551Z,50.3963
2024-05-09T00:55:33.171Z,52.1744
2024-05-09T00:56:35.807Z,55.4381
2024-05-09T00:57:38.300Z,53.4575
2024-05-09T00:58:40.894Z,53.4890
2024-05-09T00:59:43.466Z,55.3269
2024-05-09T01:00:46.162Z,55.9704
2024-05-09T01:01:48.774Z,57.6385
2024-05-09T01:02:51.304Z,56.6908
2024-05-09T01:03:54.054Z,56.9157
2024-05-09T01:04:56.463Z,56.5980
2024-05-09T01:05:59.074Z,53.5381
2024-05-09T01:07:01.600Z,56.9235
2024-05-09T01:08:04.212Z,56.9641
2024-05-09T01:09:06.748Z,55.3570
2024-05-09T01:10:14.039Z,53.0911
2024-05-09T01:11:11.966Z,52.6153
2024-05-09T01:12:14.680Z,52.4217
2024-05-09T01:13:17.127Z,55.4683
2024-05-09T01:14:19.690Z,54.3385
2024-05-09T01:15:22.207Z,54.8339
2024-05-09T01:16:24.799Z,55.0879
2024-05-09T01:17:27.512Z,56.0498
2024-05-09T01:18:30.089Z,54.8764
2024-05-09T01:19:32.833Z,54.6041
2024-05-09T01:20:41.514Z,53.3343
2024-05-09T01:21:37.717Z,56.2749
2024-05-09T01:22:40.300Z,58.5513
2024-05-09T01:23:42.977Z,55.7072
2024-05-09T01:24:45.452Z,54.3031
2024-05-09T01:25:48.090Z,54.0646
2024-05-09T01:26:50.621Z,52.9827
2024-05-09T01:27:53.207Z,55.5261
2024-05-09T01:28:55.830Z,60.2452
2024-05-09T01:29:58.368Z,54.1448
2024-05-09T01:31:01.007Z,52.6981
2024-05-09T01:32:03.637Z,55.1030
2024-05-09T01:33:07.967Z,54.2828
2024-05-09T01:34:08.806Z,54.1823
2024-05-09T01:35:11.391Z,51.7550
2024-05-09T01:36:13.946Z,53.6832
2024-05-09T01:37:16.559Z,56.5206
2024-05-09T01:38:19.136Z,56.4262
2024-05-09T01:39:21.705Z,54.1096
2024-05-09T01:40:33.489Z,59.2203
2024-05-09T01:41:26.946Z,58.0989
2024-05-09T01:42:29.453Z,57.0228
2024-05-09T01:43:32.051Z,51.5263
2024-05-09T01:44:34.692Z,57.1163
2024-05-09T01:45:37.207Z,58.4516
2024-05-09T01:46:39.821Z,53.7886
2024-05-09T01:47:42.693Z,54.7191
2024-05-09T01:48:45.028Z,57.0000
2024-05-09T01:49:47.637Z,53.7557
2024-05-09T01:50:50.156Z,54.2853
2024-05-09T01:51:52.716Z,54.7406
2024-05-09T01:52:55.338Z,55.9617
2024-05-09T01:53:57.905Z,55.6890
2024-05-09T01:55:03.524Z,56.7825
2024-05-09T01:56:03.166Z,55.3286
2024-05-09T01:57:05.704Z,54.4105
2024-05-09T01:58:08.210Z,55.8997
2024-05-09T01:59:10.857Z,56.1864
2024-05-09T02:00:18.798Z,56.0415
2024-05-09T02:01:16.027Z,56.9640
2024-05-09T02:02:18.701Z,60.1384
2024-05-09T02:03:21.472Z,57.7047
2024-05-09T02:04:23.941Z,59.2370
2024-05-09T02:05:26.353Z,56.6779
2024-05-09T02:06:28.908Z,57.1068
2024-05-09T02:07:31.497Z,58.5795
2024-05-09T02:08:34.222Z,53.9643
2024-05-09T02:09:36.694Z,55.6720
2024-05-09T02:10:39.270Z,58.3853
2024-05-09T02:11:41.951Z,55.8366
2024-05-09T02:12:44.423Z,55.5765
2024-05-09T02:13:47.017Z,57.8228
2024-05-09T02:14:49.714Z,58.0000
2024-05-09T02:15:52.262Z,58.2683
2024-05-09T02:16:54.831Z,57.7105
2024-05-09T02:17:57.479Z,59.6118
2024-05-09T02:19:00.013Z,59.8336
2024-05-09T02:20:02.765Z,60.5286
2024-05-09T02:21:05.256Z,54.7343
2024-05-09T02:22:07.681Z,56.0023
2024-05-09T02:23:10.368Z,54.9757
2024-05-09T02:24:12.861Z,55.8535
2024-05-09T02:25:15.557Z,56.2302
2024-05-09T02:26:18.132Z,57.2725
2024-05-09T02:27:20.631Z,56.4311
2024-05-09T02:28:23.301Z,55.2776
2024-05-09T02:29:25.916Z,55.4828
2024-05-09T02:30:36.373Z,56.5151
2024-05-09T02:31:30.958Z,57.1636
2024-05-09T02:32:33.696Z,57.6171
2024-05-09T02:33:36.479Z,60.7256
2024-05-09T02:34:38.848Z,58.5370
2024-05-09T02:35:41.455Z,54.3820
2024-05-09T02:36:43.873Z,57.9072
2024-05-09T02:37:46.664Z,60.3167
2024-05-09T02:38:49.043Z,60.4308
2024-05-09T02:39:51.625Z,57.3965
2024-05-09T02:40:54.234Z,57.4425
2024-05-09T02:41:56.793Z,57.3379
2024-05-09T02:42:59.438Z,58.4913
2024-05-09T02:44:02.021Z,60.6332
2024-05-09T02:45:04.536Z,56.1369
2024-05-09T02:46:07.161Z,58.0856
2024-05-09T02:47:09.843Z,55.0359
2024-05-09T02:48:13.379Z,62.3278
2024-05-09T02:49:14.925Z,60.1948
2024-05-09T02:50:25.998Z,60.4749
2024-05-09T02:51:20.104Z,56.4276
2024-05-09T02:52:22.620Z,56.2168
2024-05-09T02:53:25.270Z,57.4805
2024-05-09T02:54:27.819Z,62.5900
2024-05-09T02:55:30.382Z,57.5283
2024-05-09T02:56:33.027Z,57.9658
2024-05-09T02:57:35.534Z,52.5383
2024-05-09T02:58:38.164Z,56.9715
2024-05-09T02:59:40.720Z,59.2366
2024-05-09T03:00:43.434Z,56.6543
2024-05-09T03:01:46.064Z,58.0462
2024-05-09T03:02:48.619Z,58.0800
2024-05-09T03:03:51.180Z,59.5460
2024-05-09T03:04:53.764Z,63.3028
2024-05-09T03:05:56.387Z,59.5431
2024-05-09T03:06:58.843Z,58.2244
2024-05-09T03:08:01.532Z,56.9729
2024-05-09T03:09:04.000Z,60.5669
2024-05-09T03:10:12.218Z,59.2894
2024-05-09T03:11:09.248Z,58.3817
2024-05-09T03:12:12.015Z,61.9496
2024-05-09T03:13:15.606Z,60.2501
2024-05-09T03:14:17.013Z,50.7623
2024-05-09T03:15:19.478Z,58.6848
2024-05-09T03:16:22.047Z,61.4716
2024-05-09T03:17:24.921Z,59.9496
2024-05-09T03:18:27.380Z,62.6916
2024-05-09T03:19:29.886Z,58.1478
2024-05-09T03:20:34.757Z,59.6084
2024-05-09T03:21:34.994Z,60.7441
2024-05-09T03:22:37.555Z,60.5640
2024-05-09T03:23:40.232Z,56.0050
2024-05-09T03:24:42.728Z,55.1579
2024-05-09T03:25:45.394Z,57.8804
2024-05-09T03:26:47.902Z,59.2046
2024-05-09T03:27:50.484Z,65.3575
2024-05-09T03:28:53.136Z,56.2620
2024-05-09T03:29:55.657Z,60.8488
2024-05-09T03:30:58.234Z,60.6976
2024-05-09T03:32:00.954Z,58.1672
2024-05-09T03:33:03.625Z,61.8530
2024-05-09T03:34:06.183Z,58.6438
2024-05-09T03:35:08.625Z,60.8704
2024-05-09T03:36:11.537Z,59.3133
2024-05-09T03:37:13.784Z,61.7452
2024-05-09T03:38:16.572Z,59.6354
2024-05-09T03:39:18.927Z,59.8095
2024-05-09T03:40:26.358Z,56.9061
2024-05-09T03:41:24.159Z,59.7635
2024-05-09T03:42:26.685Z,55.4464
2024-05-09T03:43:29.253Z,59.2745
2024-05-09T03:44:31.928Z,60.0718
2024-05-09T03:45:34.452Z,57.6167
2024-05-09T03:46:37.034Z,61.1302
2024-05-09T03:47:39.782Z,61.1695
2024-05-09T03:48:42.308Z,58.4646
2024-05-09T03:49:44.862Z,63.1714
2024-05-09T03:50:47.474Z,59.2240
2024-05-09T03:51:49.939Z,59.4496
2024-05-09T03:52:52.655Z,59.5450
2024-05-09T03:53:55.177Z,63.1305
2024-05-09T03:54:57.736Z,58.9049
2024-05-09T03:56:00.394Z,60.3116
2024-05-09T03:57:02.877Z,62.3861
2024-05-09T03:58:05.455Z,58.0912
2024-05-09T03:59:08.089Z,59.0237
2024-05-09T04:00:17.824Z,62.0970
2024-05-09T04:01:13.252Z,59.5220
2024-05-09T04:02:15.864Z,60.1389
2024-05-09T04:03:18.758Z,61.5686
2024-05-09T04:04:21.090Z,58.2374
2024-05-09T04:05:23.562Z,60.1934
2024-05-09T04:06:26.176Z,57.0646
2024-05-09T04:07:28.773Z,57.5473
2024-05-09T04:08:31.367Z,59.0664
2024-05-09T04:09:33.903Z,59.3718
2024-05-09T04:10:36.472Z,54.6303
2024-05-09T04:11:39.156Z,59.5683
2024-05-09T04:12:41.666Z,59.3064
2024-05-09T04:13:44.261Z,57.1991
2024-05-09T04:14:46.823Z,55.6455
2024-05-09T04:15:49.406Z,57.2251
2024-05-09T04:16:52.076Z,57.6089
2024-05-09T04:17:54.922Z,59.0710
2024-05-09T04:18:57.270Z,57.2785
2024-05-09T04:19:59.787Z,60.0705
2024-05-09T04:21:02.501Z,57.7947
2024-05-09T04:22:04.912Z,54.3380
2024-05-09T04:23:08.603Z,56.4230
2024-05-09T04:24:10.066Z,58.9594
2024-05-09T04:25:12.683Z,58.5723
2024-05-09T04:26:15.266Z,59.5875
2024-05-09T04:27:17.871Z,58.8430
2024-05-09T04:28:20.400Z,60.2285
2024-05-09T04:29:23.041Z,60.0832
2024-05-09T04:30:34.035Z,63.1925
2024-05-09T04:31:28.166Z,61.1300
2024-05-09T04:32:30.954Z,61.4617
2024-05-09T04:33:33.575Z,59.7461
2024-05-09T04:34:36.031Z,61.1172
2024-05-09T04:35:38.913Z,55.4509
2024-05-09T04:36:43.861Z,59.3214
2024-05-09T04:37:43.762Z,58.2152
2024-05-09T04:38:46.310Z,57.6877
2024-05-09T04:39:48.843Z,60.8647
2024-05-09T04:40:51.529Z,58.9336
2024-05-09T04:41:54.018Z,58.2943
2024-05-09T04:42:56.610Z,60.2534
2024-05-09T04:43:59.206Z,58.2744
2024-05-09T04:45:01.764Z,57.0850
2024-05-09T04:46:04.345Z,56.5635
2024-05-09T04:47:06.984Z,61.3009
2024-05-09T04:48:09.806Z,63.3641
2024-05-09T04:49:12.214Z,62.9063
2024-05-09T04:50:20.987Z,57.4901
2024-05-09T04:51:17.323Z,55.3148
2024-05-09T04:52:19.889Z,62.1334
2024-05-09T04:53:22.512Z,62.7242
2024-05-09T04:54:33.809Z,60.7739
2024-05-09T04:55:27.677Z,60.3953
2024-05-09T04:56:30.234Z,57.1723
2024-05-09T04:57:32.785Z,59.9837
2024-05-09T04:58:35.371Z,59.1517
2024-05-09T04:59:38.018Z,59.7839
2024-05-09T05:00:41.326Z,58.5538
2024-05-09T05:01:43.118Z,61.1259
2024-05-09T05:02:45.784Z,60.2957
2024-05-09T05:03:48.420Z,55.9156
2024-05-09T05:04:51.021Z,59.0456
2024-05-09T05:05:53.512Z,59.3797
2024-05-09T05:06:57.779Z,60.2761
2024-05-09T05:07:58.695Z,56.8886
2024-05-09T05:09:01.245Z,57.9770
2024-05-09T05:10:05.749Z,60.2786
2024-05-09T05:11:06.447Z,58.3438
2024-05-09T05:12:09.165Z,55.3940
2024-05-09T05:13:11.577Z,55.4371
2024-05-09T05:14:14.180Z,62.0703
2024-05-09T05:15:16.732Z,56.5664
2024-05-09T05:16:19.322Z,64.4653
2024-05-09T05:17:22.010Z,59.2639
2024-05-09T05:18:24.650Z,62.0089
2024-05-09T05:19:27.299Z,62.4132
2024-05-09T05:20:33.593Z,59.8682
2024-05-09T05:21:32.334Z,60.7419
2024-05-09T05:22:34.870Z,58.1130
2024-05-09T05:23:37.505Z,64.9788
2024-05-09T05:24:39.991Z,61.6367
2024-05-09T05:25:42.585Z,61.5082
2024-05-09T05:26:45.193Z,61.4092
2024-05-09T05:27:47.743Z,58.3435
2024-05-09T05:28:50.377Z,57.1796
2024-05-09T05:29:52.941Z,57.2803
2024-05-09T05:30:55.522Z,58.0878
2024-05-09T05:31:58.210Z,60.6264
2024-05-09T05:33:01.001Z,56.9337
2024-05-09T05:34:03.355Z,61.1985
2024-05-09T05:35:05.913Z,57.6620
2024-05-09T05:36:08.466Z,58.4087
2024-05-09T05:37:11.008Z,59.1934
2024-05-09T05:38:13.657Z,54.2754
2024-05-09T05:39:16.249Z,58.6429
2024-05-09T05:40:28.014Z,59.0682
2024-05-09T05:41:21.432Z,56.7662
2024-05-09T05:42:24.004Z,57.6881
2024-05-09T05:43:26.591Z,57.3658
2024-05-09T05:44:29.306Z,58.1237
2024-05-09T05:45:31.757Z,60.5528
2024-05-09T05:46:34.359Z,61.6934
2024-05-09T05:47:37.043Z,58.8425
2024-05-09T05:48:39.795Z,60.3129
2024-05-09T05:49:42.139Z,60.8847
2024-05-09T05:50:44.779Z,58.8687
2024-05-09T05:51:47.314Z,57.8830
2024-05-09T05:52:49.882Z,61.0738
2024-05-09T05:53:52.459Z,58.8826
2024-05-09T05:54:55.048Z,63.2447
2024-05-09T05:55:57.682Z,60.9423
2024-05-09T05:57:00.216Z,61.6919
2024-05-09T05:58:02.875Z,57.5845
2024-05-09T05:59:05.417Z,61.2529
2024-05-09T06:00:09.782Z,60.9935
2024-05-09T06:01:10.562Z,61.7289
2024-05-09T06:02:13.230Z,61.6285
2024-05-09T06:03:15.838Z,61.8032
2024-05-09T06:04:18.455Z,61.8702
2024-05-09T06:05:20.898Z,60.2505
2024-05-09T06:06:23.469Z,58.2550
2024-05-09T06:07:26.031Z,59.2884
2024-05-09T06:08:30.532Z,61.1244
2024-05-09T06:09:31.276Z,57.7488
2024-05-09T06:10:38.868Z,58.4572
2024-05-09T06:11:36.434Z,63.2199
2024-05-09T06:12:38.969Z,58.9744
2024-05-09T06:13:41.537Z,63.3983
2024-05-09T06:14:44.123Z,62.1823
2024-05-09T06:15:46.720Z,59.5757
2024-05-09T06:16:49.337Z,61.6799
2024-05-09T06:17:51.999Z,60.8086
2024-05-09T06:18:54.688Z,60.3792
2024-05-09T06:19:57.074Z,58.2659
2024-05-09T06:20:59.679Z,56.2196
2024-05-09T06:22:02.218Z,60.3259
2024-05-09T06:23:05.062Z,61.7211
2024-05-09T06:24:07.384Z,62.7909
2024-05-09T06:25:09.983Z,63.5434
2024-05-09T06:26:12.583Z,63.2733
2024-05-09T06:27:15.146Z,64.3356
2024-05-09T06:28:17.710Z,63.0280
2024-05-09T06:29:20.341Z,63.5219
2024-05-09T06:30:30.277Z,62.1514
2024-05-09T06:31:25.476Z,60.9358
2024-05-09T06:32:28.237Z,58.5585
2024-05-09T06:33:30.853Z,61.7838
2024-05-09T06:34:33.387Z,59.2701
2024-05-09T06:35:36.114Z,64.0920
2024-05-09T06:36:38.514Z,63.7704
2024-05-09T06:37:40.968Z,60.1983
2024-05-09T06:38:43.566Z,64.5955
2024-05-09T06:39:46.136Z,63.2736
2024-05-09T06:40:48.783Z,61.3164
2024-05-09T06:41:51.317Z,66.3797
2024-05-09T06:42:53.881Z,62.1883
2024-05-09T06:43:56.513Z,59.9711
2024-05-09T06:44:59.072Z,59.0027
2024-05-09T06:46:01.663Z,61.4774
2024-05-09T06:47:04.324Z,59.7981
2024-05-09T06:48:07.080Z,58.9343
2024-05-09T06:49:09.560Z,59.1792
2024-05-09T06:50:20.217Z,59.5072
2024-05-09T06:51:14.729Z,58.9199
2024-05-09T06:52:17.157Z,59.1206
2024-05-09T06:53:19.755Z,63.1001
2024-05-09T06:54:22.331Z,63.6864
2024-05-09T06:55:24.891Z,63.2614
2024-05-09T06:56:27.518Z,59.1903
2024-05-09T06:57:30.075Z,64.3141
2024-05-09T06:58:32.649Z,58.0561
2024-05-09T06:59:35.380Z,60.9990
2024-05-09T07:00:40.340Z,58.5467
2024-05-09T07:01:40.483Z,62.4431
2024-05-09T07:02:43.116Z,58.3023
2024-05-09T07:03:45.733Z,61.2968
2024-05-09T07:04:48.244Z,58.4207
2024-05-09T07:05:50.757Z,59.5360
2024-05-09T07:06:53.370Z,58.9577
2024-05-09T07:07:55.916Z,59.8608
2024-05-09T07:08:58.527Z,59.5368
2024-05-09T07:10:01.086Z,61.9156
2024-05-09T07:11:03.809Z,58.6210
2024-05-09T07:12:06.373Z,61.3120
2024-05-09T07:13:08.823Z,63.1350
2024-05-09T07:14:11.495Z,62.9529
2024-05-09T07:15:13.984Z,60.0097
2024-05-09T07:16:16.625Z,60.0233
2024-05-09T07:17:19.269Z,57.8847
2024-05-09T07:18:21.941Z,59.1495
2024-05-09T07:19:24.576Z,63.2010
2024-05-09T07:20:34.085Z,60.7832
2024-05-09T07:21:29.485Z,60.8721
2024-05-09T07:22:32.064Z,61.1009
2024-05-09T07:23:34.815Z,58.4596
2024-05-09T07:24:37.240Z,57.3671
2024-05-09T07:25:39.832Z,56.2006
2024-05-09T07:26:42.463Z,59.0150
2024-05-09T07:27:44.972Z,61.9875
2024-05-09T07:28:47.618Z,61.3370
2024-05-09T07:29:50.134Z,60.0456
2024-05-09T07:30:52.729Z,60.0857
2024-05-09T07:31:55.343Z,57.7652
2024-05-09T07:32:58.115Z,59.8311
2024-05-09T07:34:00.705Z,58.3470
2024-05-09T07:35:03.182Z,58.7832
2024-05-09T07:36:05.657Z,57.8884
2024-05-09T07:37:08.262Z,55.3239
2024-05-09T07:38:10.862Z,54.8255
2024-05-09T07:39:13.367Z,55.0728
2024-05-09T07:40:24.882Z,54.4361
2024-05-09T07:41:18.594Z,56.1379
2024-05-09T07:42:21.126Z,58.2404
2024-05-09T07:43:23.743Z,58.5338
2024-05-09T07:44:26.285Z,58.2412
2024-05-09T07:45:45.219Z,56.2633
2024-05-09T07:47:37.114Z,59.2893
2024-05-09T07:50:34.437Z,56.6406
2024-05-09T07:53:14.438Z,53.6817
2024-05-09T07:53:34.619Z,51.9675
2024-05-09T07:53:52.382Z,56.1480
2024-05-09T07:54:52.293Z,56.0189
2024-05-09T07:55:55.248Z,59.0883
2024-05-09T07:56:57.564Z,57.8300
2024-05-09T07:57:59.914Z,57.5897
2024-05-09T07:59:02.457Z,56.6768
2024-05-09T08:00:06.655Z,60.8015
2024-05-09T08:01:07.715Z,57.4728
2024-05-09T08:02:10.374Z,58.3400
2024-05-09T08:03:12.859Z,55.3028
2024-05-09T08:04:15.469Z,56.0825
2024-05-09T08:05:18.102Z,54.4960
2024-05-09T08:06:20.538Z,53.0496
2024-05-09T08:07:23.192Z,58.9310
2024-05-09T08:08:25.722Z,57.6561
2024-05-09T08:09:28.339Z,59.4202
2024-05-09T08:10:30.960Z,51.3901
2024-05-09T08:11:33.504Z,53.6839
2024-05-09T08:12:36.099Z,52.6196
2024-05-09T08:13:38.725Z,52.7067
2024-05-09T08:14:41.213Z,55.5526
2024-05-09T08:15:43.896Z,53.7232
2024-05-09T08:16:46.390Z,55.5061
2024-05-09T08:17:49.063Z,58.3532
2024-05-09T08:18:51.671Z,55.1490
2024-05-09T08:19:54.136Z,53.1465
2024-05-09T08:20:56.719Z,49.1507
2024-05-09T08:21:59.341Z,55.4371
2024-05-09T08:23:01.887Z,55.6291
2024-05-09T08:24:04.485Z,74.1326
2024-05-09T08:25:07.076Z,134.3648
2024-05-09T08:26:09.639Z,206.2614
2024-05-09T08:27:12.242Z,284.0608
2024-05-09T08:28:14.852Z,387.5876
2024-05-09T08:29:17.407Z,417.9097
2024-05-09T08:30:25.304Z,457.4860
2024-05-09T08:31:22.792Z,514.2887
2024-05-09T08:32:25.185Z,388.0126
2024-05-09T08:33:27.835Z,522.1761
2024-05-09T08:34:30.358Z,470.1997
2024-05-09T08:35:32.934Z,441.3842
2024-05-09T08:36:35.513Z,407.4653
2024-05-09T08:37:40.483Z,417.9799
2024-05-09T08:38:40.656Z,414.2368
2024-05-09T08:39:43.258Z,528.9235
2024-05-09T08:40:45.898Z,759.8126
2024-05-09T08:41:48.398Z,631.5690
2024-05-09T08:42:51.003Z,475.4390
2024-05-09T08:43:53.562Z,459.4440
2024-05-09T08:44:56.133Z,392.7932
2024-05-09T08:45:58.766Z,404.2244
2024-05-09T08:47:01.385Z,479.3868
2024-05-09T08:48:04.070Z,475.5794
2024-05-09T08:49:06.642Z,489.2509
2024-05-09T08:50:13.783Z,512.6042
2024-05-09T08:51:11.641Z,459.9766
2024-05-09T08:52:14.229Z,465.4806
2024-05-09T08:53:16.822Z,497.5491
2024-05-09T08:54:19.395Z,485.4009
2024-05-09T08:55:21.994Z,493.2388
2024-05-09T08:56:24.600Z,500.4113
2024-05-09T08:57:27.228Z,536.1629
2024-05-09T08:58:29.721Z,554.3305
2024-05-09T08:59:32.340Z,539.0197
2024-05-09T09:00:37.310Z,498.4591
2024-05-09T09:01:38.136Z,512.7097
2024-05-09T09:02:40.250Z,530.5106
2024-05-09T09:03:42.848Z,548.9447
2024-05-09T09:04:45.295Z,578.9584
2024-05-09T09:05:47.839Z,581.0824
2024-05-09T09:06:51.453Z,566.8201
2024-05-09T09:07:52.975Z,533.5626
2024-05-09T09:08:55.550Z,505.8131
2024-05-09T09:09:58.154Z,494.8313
2024-05-09T09:11:00.761Z,467.1230
2024-05-09T09:12:03.327Z,496.5630
2024-05-09T09:13:05.932Z,525.0826
2024-05-09T09:14:08.484Z,518.3820
2024-05-09T09:15:11.076Z,521.3898
2024-05-09T09:16:13.750Z,482.2104
2024-05-09T09:17:16.338Z,483.4000
2024-05-09T09:18:19.292Z,446.9036
2024-05-09T09:19:21.581Z,479.0799
2024-05-09T09:20:29.402Z,421.3322
2024-05-09T09:21:26.773Z,398.5753
2024-05-09T09:22:29.164Z,389.3305
2024-05-09T09:23:31.880Z,374.4896
2024-05-09T09:24:34.373Z,401.1413
2024-05-09T09:25:36.920Z,376.9062
2024-05-09T09:26:39.503Z,372.7727
2024-05-09T09:27:42.167Z,364.0050
2024-05-09T09:28:44.669Z,376.0898
2024-05-09T09:29:47.293Z,353.2759
2024-05-09T09:30:49.905Z,404.7074
2024-05-09T09:31:52.445Z,402.7375
2024-05-09T09:32:55.123Z,369.7383
2024-05-09T09:33:57.936Z,364.5031
2024-05-09T09:35:00.237Z,412.7963
2024-05-09T09:36:02.753Z,402.1460
2024-05-09T09:37:05.404Z,373.1166
2024-05-09T09:38:07.992Z,398.8987
2024-05-09T09:39:10.560Z,407.5405
2024-05-09T09:40:13.468Z,420.6911
2024-05-09T09:41:15.758Z,401.6120
2024-05-09T09:42:18.265Z,388.8924
2024-05-09T09:43:21.177Z,374.6655
2024-05-09T09:44:23.412Z,404.8011
2024-05-09T09:45:26.053Z,410.5713
2024-05-09T09:46:28.740Z,401.1916
2024-05-09T09:47:31.300Z,391.0177
2024-05-09T09:48:34.080Z,421.5562
2024-05-09T09:49:36.411Z,400.2328
2024-05-09T09:50:38.965Z,390.1788
2024-05-09T09:51:41.608Z,404.7545
2024-05-09T09:52:44.123Z,419.3245
2024-05-09T09:53:46.748Z,436.8772
2024-05-09T09:54:49.381Z,430.3947
2024-05-09T09:55:51.897Z,422.9925
2024-05-09T09:56:54.453Z,422.9058
2024-05-09T09:57:57.112Z,426.5367
2024-05-09T09:58:59.621Z,413.9781
2024-05-09T10:00:03.119Z,406.2412
2024-05-09T10:01:04.986Z,414.4792
2024-05-09T10:02:07.600Z,422.1105
2024-05-09T10:03:10.133Z,423.4179
2024-05-09T10:04:12.692Z,386.0643
2024-05-09T10:05:15.160Z,375.0467
2024-05-09T10:06:17.681Z,362.1301
2024-05-09T10:07:20.354Z,346.8984
2024-05-09T10:08:22.858Z,361.0485
2024-05-09T10:09:25.473Z,361.8153
2024-05-09T10:10:32.317Z,354.6981
2024-05-09T10:11:31.679Z,362.4873
2024-05-09T10:12:33.267Z,390.3242
2024-05-09T10:13:35.863Z,384.7801
2024-05-09T10:14:38.342Z,359.8133
2024-05-09T10:15:40.966Z,340.3237
2024-05-09T10:16:43.528Z,330.1850
2024-05-09T10:17:46.150Z,342.5996
2024-05-09T10:18:48.861Z,345.9042
2024-05-09T10:19:51.389Z,332.3540
2024-05-09T10:20:53.826Z,340.1369
2024-05-09T10:21:56.427Z,315.2184
2024-05-09T10:22:59.055Z,316.0708
2024-05-09T10:24:01.583Z,293.2335
2024-05-09T10:25:05.108Z,303.8809
2024-05-09T10:26:06.748Z,319.4967
2024-05-09T10:27:09.400Z,310.0909
2024-05-09T10:28:12.081Z,302.3198
2024-05-09T10:29:14.517Z,319.8788
2024-05-09T10:30:25.816Z,346.5016
2024-05-09T10:31:19.683Z,367.1666
2024-05-09T10:32:22.363Z,357.0737
2024-05-09T10:33:24.987Z,355.2307
2024-05-09T10:34:27.632Z,327.6867
2024-05-09T10:35:30.023Z,306.9134
2024-05-09T10:36:32.644Z,290.1908
2024-05-09T10:37:35.236Z,273.7046
2024-05-09T10:38:37.748Z,313.3909
2024-05-09T10:39:40.359Z,311.2569
2024-05-09T10:40:42.964Z,304.2522
2024-05-09T10:41:45.493Z,313.8055
2024-05-09T10:42:48.183Z,293.0226
2024-05-09T10:43:50.705Z,291.1995
2024-05-09T10:44:53.338Z,300.8863
2024-05-09T10:45:55.856Z,304.5026
2024-05-09T10:46:58.437Z,312.7259
2024-05-09T10:48:01.163Z,307.5275
2024-05-09T10:49:06.294Z,287.5895
2024-05-09T10:50:12.710Z,290.2501
2024-05-09T10:51:08.744Z,317.3495
2024-05-09T10:52:11.350Z,316.5365
2024-05-09T10:53:13.895Z,304.7501
2024-05-09T10:54:16.509Z,288.1560
2024-05-09T10:55:19.285Z,278.0059
2024-05-09T10:56:21.663Z,277.2256
2024-05-09T10:57:24.230Z,273.6555
2024-05-09T10:58:26.805Z,256.3044
2024-05-09T10:59:29.400Z,279.2250
2024-05-09T11:00:35.863Z,297.8494
2024-05-09T11:01:34.639Z,298.7755
2024-05-09T11:02:37.291Z,298.3749
2024-05-09T11:03:40.127Z,294.3165
2024-05-09T11:04:42.485Z,300.6812
2024-05-09T11:05:45.094Z,296.3557
2024-05-09T11:06:47.532Z,297.1763
2024-05-09T11:07:50.071Z,296.9671
2024-05-09T11:08:52.649Z,287.8151
2024-05-09T11:09:55.301Z,295.0671
2024-05-09T11:10:57.855Z,287.6759
2024-05-09T11:12:00.463Z,290.6198
2024-05-09T11:13:03.048Z,291.8795
2024-05-09T11:14:05.565Z,267.0881
2024-05-09T11:15:08.180Z,278.5812
2024-05-09T11:16:10.801Z,273.6878
2024-05-09T11:17:13.322Z,273.8321
2024-05-09T11:18:16.063Z,268.7156
2024-05-09T11:19:18.673Z,267.5440
2024-05-09T11:20:26.942Z,276.1547
2024-05-09T11:21:23.652Z,274.1893
2024-05-09T11:22:26.289Z,262.2204
2024-05-09T11:23:28.804Z,277.6210
2024-05-09T11:24:31.407Z,273.7318
2024-05-09T11:25:33.975Z,269.9029
2024-05-09T11:26:36.612Z,263.1178
2024-05-09T11:27:39.184Z,275.2620
2024-05-09T11:28:41.734Z,278.8449
2024-05-09T11:29:44.315Z,280.6220
2024-05-09T11:30:46.983Z,269.7638
2024-05-09T11:31:49.668Z,276.2398
2024-05-09T11:32:52.298Z,276.8704
2024-05-09T11:33:54.846Z,282.4225
2024-05-09T11:34:57.244Z,270.2761
2024-05-09T11:35:59.823Z,271.6565
2024-05-09T11:37:02.494Z,265.3390
2024-05-09T11:38:04.995Z,262.1823
2024-05-09T11:39:07.593Z,256.4915
2024-05-09T11:40:16.814Z,253.7708
2024-05-09T11:41:12.774Z,263.9940
2024-05-09T11:42:15.326Z,256.1042
2024-05-09T11:43:18.053Z,258.3535
2024-05-09T11:44:20.523Z,261.8268
2024-05-09T11:45:23.148Z,254.4148
2024-05-09T11:46:25.819Z,258.9293
2024-05-09T11:47:28.289Z,263.2579
2024-05-09T11:48:31.148Z,251.9139
2024-05-09T11:49:33.563Z,250.6156
2024-05-09T11:50:36.444Z,252.3490
2024-05-09T11:51:38.637Z,247.0908
2024-05-09T11:52:41.164Z,249.8853
2024-05-09T11:53:43.762Z,254.3427
2024-05-09T11:54:46.381Z,247.2319
2024-05-09T11:55:48.946Z,248.0458
2024-05-09T11:56:51.604Z,241.6707
2024-05-09T11:57:54.097Z,243.7112
2024-05-09T11:58:56.664Z,235.9998
2024-05-09T11:59:59.249Z,235.5914
2024-05-09T12:01:01.979Z,232.6369
2024-05-09T12:02:04.589Z,234.7718
2024-05-09T12:03:07.099Z,239.6308
2024-05-09T12:04:09.699Z,232.3715
2024-05-09T12:05:12.246Z,235.4462
2024-05-09T12:06:14.769Z,242.9395
2024-05-09T12:07:17.439Z,239.7843
2024-05-09T12:08:19.934Z,233.9659
2024-05-09T12:09:22.494Z,235.9417
2024-05-09T12:10:32.125Z,233.3767
2024-05-09T12:11:27.703Z,233.6461
2024-05-09T12:12:30.302Z,222.8026
2024-05-09T12:13:32.957Z,225.5242
2024-05-09T12:14:35.447Z,232.1275
2024-05-09T12:15:38.879Z,229.6683
2024-05-09T12:16:40.653Z,216.7892
2024-05-09T12:17:43.288Z,221.1381
2024-05-09T12:18:45.904Z,218.1915
2024-05-09T12:19:48.419Z,212.8202
2024-05-09T12:20:50.949Z,221.5328
2024-05-09T12:21:53.553Z,224.4439
2024-05-09T12:22:56.099Z,212.6572
2024-05-09T12:23:58.679Z,207.1854
2024-05-09T12:25:01.316Z,203.3140
2024-05-09T12:26:03.868Z,214.0220
2024-05-09T12:27:06.457Z,197.8929
2024-05-09T12:28:09.198Z,198.7357
2024-05-09T12:29:11.622Z,195.4407
2024-05-09T12:30:20.729Z,198.0601
2024-05-09T12:31:16.807Z,199.7966
2024-05-09T12:32:19.420Z,209.5818